sensor_id;sensor_type;location;lat;lon;timestamp;P1;durP1;ratioP1;P2;durP2;ratioP2
54815;SDS011;40715;55.752;37.884;2022-08-30T00:01:31;0.00;;;0.00;;
54815;SDS011;40715;55.752;37.884;2022-08-30T00:04:00;0.00;;;0.00;;
54815;SDS011;40715;55.752;37.884;2022-08-30T00:06:28;0.00;;;0.00;;
54815;SDS011;40715;55.752;37.884;2022-08-30T00:08:55;0.00;;;0.00;;
54815;SDS011;40715;55.752;37.884;2022-08-30T00:11:24;0.00;;;0.00;;
54815;SDS011;40715;55.752;37.884;2022-08-30T00:13:53;0.00;;;0.00;;
54815;SDS011;40715;55.752;37.884;2022-08-30T00:16:21;0.00;;;0.00;;
54815;SDS011;40715;55.752;37.884;2022-08-30T00:18:49;0.00;;;0.00;;
54815;SDS011;40715;55.752;37.884;2022-08-30T00:21:17;0.00;;;0.00;;
54815;SDS011;40715;55.752;37.884;2022-08-30T00:23:44;0.00;;;0.00;;
54815;SDS011;40715;55.752;37.884;2022-08-30T00:26:11;0.00;;;0.00;;
54815;SDS011;40715;55.752;37.884;2022-08-30T00:28:38;0.00;;;0.00;;
54815;SDS011;40715;55.752;37.884;2022-08-30T00:31:05;0.00;;;0.00;;
54815;SDS011;40715;55.752;37.884;2022-08-30T00:33:33;0.00;;;0.00;;
54815;SDS011;40715;55.752;37.884;2022-08-30T00:36:02;0.00;;;0.00;;
54815;SDS011;40715;55.752;37.884;2022-08-30T00:38:29;0.00;;;0.00;;
54815;SDS011;40715;55.752;37.884;2022-08-30T00:40:56;0.00;;;0.00;;
54815;SDS011;40715;55.752;37.884;2022-08-30T00:43:26;0.00;;;0.00;;
54815;SDS011;40715;55.752;37.884;2022-08-30T00:45:55;0.00;;;0.00;;
54815;SDS011;40715;55.752;37.884;2022-08-30T00:48:24;0.00;;;0.00;;
54815;SDS011;40715;55.752;37.884;2022-08-30T00:50:52;0.00;;;0.00;;
54815;SDS011;40715;55.752;37.884;2022-08-30T00:53:25;0.00;;;0.00;;
54815;SDS011;40715;55.752;37.884;2022-08-30T00:55:54;0.00;;;0.00;;
54815;SDS011;40715;55.752;37.884;2022-08-30T00:58:24;0.00;;;0.00;;
54815;SDS011;40715;55.752;37.884;2022-08-30T01:00:56;0.00;;;0.00;;
54815;SDS011;40715;55.752;37.884;2022-08-30T01:03:24;0.00;;;0.00;;
54815;SDS011;40715;55.752;37.884;2022-08-30T01:05:51;0.00;;;0.00;;
54815;SDS011;40715;55.752;37.884;2022-08-30T01:08:19;0.00;;;0.00;;
54815;SDS011;40715;55.752;37.884;2022-08-30T01:10:49;0.00;;;0.00;;
54815;SDS011;40715;55.752;37.884;2022-08-30T01:13:18;0.00;;;0.00;;
54815;SDS011;40715;55.752;37.884;2022-08-30T01:15:47;0.00;;;0.00;;
54815;SDS011;40715;55.752;37.884;2022-08-30T01:18:16;0.00;;;0.00;;
54815;SDS011;40715;55.752;37.884;2022-08-30T01:23:41;0.00;;;0.00;;
54815;SDS011;40715;55.752;37.884;2022-08-30T01:26:10;0.00;;;0.00;;
54815;SDS011;40715;55.752;37.884;2022-08-30T01:28:38;0.00;;;0.00;;
54815;SDS011;40715;55.752;37.884;2022-08-30T01:31:06;0.00;;;0.00;;
54815;SDS011;40715;55.752;37.884;2022-08-30T01:33:35;0.00;;;0.00;;
54815;SDS011;40715;55.752;37.884;2022-08-30T01:36:04;0.00;;;0.00;;
54815;SDS011;40715;55.752;37.884;2022-08-30T01:38:34;0.00;;;0.00;;
54815;SDS011;40715;55.752;37.884;2022-08-30T01:41:23;0.00;;;0.00;;
54815;SDS011;40715;55.752;37.884;2022-08-30T01:43:53;0.00;;;0.00;;
54815;SDS011;40715;55.752;37.884;2022-08-30T01:46:22;0.00;;;0.00;;
54815;SDS011;40715;55.752;37.884;2022-08-30T01:48:52;0.10;;;0.00;;
54815;SDS011;40715;55.752;37.884;2022-08-30T01:51:22;0.00;;;0.00;;
54815;SDS011;40715;55.752;37.884;2022-08-30T01:53:50;0.00;;;0.00;;
54815;SDS011;40715;55.752;37.884;2022-08-30T01:56:17;0.00;;;0.00;;
54815;SDS011;40715;55.752;37.884;2022-08-30T01:58:45;0.00;;;0.00;;
54815;SDS011;40715;55.752;37.884;2022-08-30T02:01:12;0.03;;;0.00;;
54815;SDS011;40715;55.752;37.884;2022-08-30T02:03:42;0.00;;;0.00;;
54815;SDS011;40715;55.752;37.884;2022-08-30T02:06:11;0.00;;;0.00;;
54815;SDS011;40715;55.752;37.884;2022-08-30T02:08:41;0.00;;;0.00;;
54815;SDS011;40715;55.752;37.884;2022-08-30T02:11:09;0.00;;;0.00;;
54815;SDS011;40715;55.752;37.884;2022-08-30T02:13:37;0.00;;;0.00;;
54815;SDS011;40715;55.752;37.884;2022-08-30T02:16:07;0.00;;;0.00;;
54815;SDS011;40715;55.752;37.884;2022-08-30T02:18:36;0.00;;;0.00;;
54815;SDS011;40715;55.752;37.884;2022-08-30T02:21:05;0.00;;;0.00;;
54815;SDS011;40715;55.752;37.884;2022-08-30T02:23:32;0.00;;;0.00;;
54815;SDS011;40715;55.752;37.884;2022-08-30T02:25:59;0.00;;;0.00;;
54815;SDS011;40715;55.752;37.884;2022-08-30T02:28:26;0.00;;;0.00;;
54815;SDS011;40715;55.752;37.884;2022-08-30T02:30:54;0.00;;;0.00;;
54815;SDS011;40715;55.752;37.884;2022-08-30T02:33:21;0.00;;;0.00;;
54815;SDS011;40715;55.752;37.884;2022-08-30T02:35:48;0.00;;;0.00;;
54815;SDS011;40715;55.752;37.884;2022-08-30T02:38:15;0.00;;;0.00;;
54815;SDS011;40715;55.752;37.884;2022-08-30T02:40:45;0.00;;;0.00;;
54815;SDS011;40715;55.752;37.884;2022-08-30T02:43:12;0.00;;;0.00;;
54815;SDS011;40715;55.752;37.884;2022-08-30T02:45:39;0.05;;;0.00;;
54815;SDS011;40715;55.752;37.884;2022-08-30T02:48:06;0.00;;;0.00;;
54815;SDS011;40715;55.752;37.884;2022-08-30T02:50:33;0.00;;;0.00;;
54815;SDS011;40715;55.752;37.884;2022-08-30T02:53:00;0.00;;;0.00;;
54815;SDS011;40715;55.752;37.884;2022-08-30T02:55:27;0.00;;;0.00;;
54815;SDS011;40715;55.752;37.884;2022-08-30T02:57:54;0.00;;;0.00;;
54815;SDS011;40715;55.752;37.884;2022-08-30T03:00:21;0.00;;;0.00;;
54815;SDS011;40715;55.752;37.884;2022-08-30T03:02:48;0.00;;;0.00;;
54815;SDS011;40715;55.752;37.884;2022-08-30T03:05:15;0.00;;;0.00;;
54815;SDS011;40715;55.752;37.884;2022-08-30T03:07:44;0.00;;;0.00;;
54815;SDS011;40715;55.752;37.884;2022-08-30T03:10:14;0.00;;;0.00;;
54815;SDS011;40715;55.752;37.884;2022-08-30T03:12:42;0.00;;;0.00;;
54815;SDS011;40715;55.752;37.884;2022-08-30T03:15:11;0.00;;;0.00;;
54815;SDS011;40715;55.752;37.884;2022-08-30T03:17:38;0.00;;;0.00;;
54815;SDS011;40715;55.752;37.884;2022-08-30T03:20:06;0.00;;;0.00;;
54815;SDS011;40715;55.752;37.884;2022-08-30T03:22:35;0.00;;;0.00;;
54815;SDS011;40715;55.752;37.884;2022-08-30T03:25:02;0.00;;;0.00;;
54815;SDS011;40715;55.752;37.884;2022-08-30T03:27:30;0.00;;;0.00;;
54815;SDS011;40715;55.752;37.884;2022-08-30T03:29:57;0.00;;;0.00;;
54815;SDS011;40715;55.752;37.884;2022-08-30T03:32:25;0.00;;;0.00;;
54815;SDS011;40715;55.752;37.884;2022-08-30T03:34:53;0.00;;;0.00;;
54815;SDS011;40715;55.752;37.884;2022-08-30T03:37:20;0.00;;;0.00;;
54815;SDS011;40715;55.752;37.884;2022-08-30T03:39:52;0.00;;;0.00;;
54815;SDS011;40715;55.752;37.884;2022-08-30T03:42:20;0.00;;;0.00;;
54815;SDS011;40715;55.752;37.884;2022-08-30T03:44:47;0.00;;;0.00;;
54815;SDS011;40715;55.752;37.884;2022-08-30T03:47:14;0.00;;;0.00;;
54815;SDS011;40715;55.752;37.884;2022-08-30T03:49:42;0.00;;;0.00;;
54815;SDS011;40715;55.752;37.884;2022-08-30T03:52:09;0.00;;;0.00;;
54815;SDS011;40715;55.752;37.884;2022-08-30T03:54:36;0.10;;;0.10;;
54815;SDS011;40715;55.752;37.884;2022-08-30T03:57:04;0.00;;;0.00;;
54815;SDS011;40715;55.752;37.884;2022-08-30T03:59:31;0.00;;;0.00;;
54815;SDS011;40715;55.752;37.884;2022-08-30T04:01:58;0.10;;;0.10;;
54815;SDS011;40715;55.752;37.884;2022-08-30T04:04:25;0.10;;;0.10;;
54815;SDS011;40715;55.752;37.884;2022-08-30T04:06:52;0.10;;;0.10;;
54815;SDS011;40715;55.752;37.884;2022-08-30T04:09:20;0.10;;;0.10;;
54815;SDS011;40715;55.752;37.884;2022-08-30T04:11:47;0.10;;;0.10;;
54815;SDS011;40715;55.752;37.884;2022-08-30T04:14:15;0.10;;;0.10;;
54815;SDS011;40715;55.752;37.884;2022-08-30T04:16:42;0.13;;;0.13;;
54815;SDS011;40715;55.752;37.884;2022-08-30T04:19:10;0.15;;;0.15;;
54815;SDS011;40715;55.752;37.884;2022-08-30T04:21:37;0.20;;;0.20;;
54815;SDS011;40715;55.752;37.884;2022-08-30T04:24:06;0.20;;;0.20;;
54815;SDS011;40715;55.752;37.884;2022-08-30T04:26:33;0.20;;;0.20;;
54815;SDS011;40715;55.752;37.884;2022-08-30T04:29:00;0.20;;;0.20;;
54815;SDS011;40715;55.752;37.884;2022-08-30T04:31:27;0.20;;;0.20;;
54815;SDS011;40715;55.752;37.884;2022-08-30T04:33:54;0.20;;;0.20;;
54815;SDS011;40715;55.752;37.884;2022-08-30T04:36:21;0.20;;;0.20;;
54815;SDS011;40715;55.752;37.884;2022-08-30T04:38:48;0.20;;;0.20;;
54815;SDS011;40715;55.752;37.884;2022-08-30T04:41:17;0.20;;;0.20;;
54815;SDS011;40715;55.752;37.884;2022-08-30T04:43:46;0.25;;;0.25;;
54815;SDS011;40715;55.752;37.884;2022-08-30T04:46:17;0.30;;;0.30;;
54815;SDS011;40715;55.752;37.884;2022-08-30T04:48:45;0.40;;;0.40;;
54815;SDS011;40715;55.752;37.884;2022-08-30T04:51:13;0.35;;;0.35;;
54815;SDS011;40715;55.752;37.884;2022-08-30T04:53:42;0.30;;;0.30;;
54815;SDS011;40715;55.752;37.884;2022-08-30T04:56:11;0.43;;;0.43;;
54815;SDS011;40715;55.752;37.884;2022-08-30T04:58:44;0.35;;;0.35;;
54815;SDS011;40715;55.752;37.884;2022-08-30T05:01:13;0.50;;;0.50;;
54815;SDS011;40715;55.752;37.884;2022-08-30T05:03:42;0.50;;;0.50;;
54815;SDS011;40715;55.752;37.884;2022-08-30T05:06:10;0.40;;;0.40;;
54815;SDS011;40715;55.752;37.884;2022-08-30T05:08:37;0.60;;;0.60;;
54815;SDS011;40715;55.752;37.884;2022-08-30T05:11:05;0.68;;;0.68;;
54815;SDS011;40715;55.752;37.884;2022-08-30T05:13:34;0.70;;;0.70;;
54815;SDS011;40715;55.752;37.884;2022-08-30T05:16:03;0.90;;;0.90;;
54815;SDS011;40715;55.752;37.884;2022-08-30T05:18:31;0.75;;;0.75;;
54815;SDS011;40715;55.752;37.884;2022-08-30T05:21:09;0.70;;;0.70;;
54815;SDS011;40715;55.752;37.884;2022-08-30T05:23:38;0.90;;;0.90;;
54815;SDS011;40715;55.752;37.884;2022-08-30T05:26:06;2.17;;;2.08;;
54815;SDS011;40715;55.752;37.884;2022-08-30T05:28:41;1.00;;;1.00;;
54815;SDS011;40715;55.752;37.884;2022-08-30T05:31:15;1.20;;;1.20;;
54815;SDS011;40715;55.752;37.884;2022-08-30T05:33:48;1.20;;;1.20;;
54815;SDS011;40715;55.752;37.884;2022-08-30T05:36:16;1.30;;;1.30;;
54815;SDS011;40715;55.752;37.884;2022-08-30T05:38:44;1.40;;;1.40;;
54815;SDS011;40715;55.752;37.884;2022-08-30T05:41:12;1.30;;;1.30;;
54815;SDS011;40715;55.752;37.884;2022-08-30T05:43:39;1.30;;;1.30;;
54815;SDS011;40715;55.752;37.884;2022-08-30T05:46:10;1.30;;;1.30;;
54815;SDS011;40715;55.752;37.884;2022-08-30T05:48:39;1.60;;;1.60;;
54815;SDS011;40715;55.752;37.884;2022-08-30T05:51:08;1.50;;;1.50;;
54815;SDS011;40715;55.752;37.884;2022-08-30T05:53:40;1.52;;;1.52;;
54815;SDS011;40715;55.752;37.884;2022-08-30T05:56:08;1.60;;;1.60;;
54815;SDS011;40715;55.752;37.884;2022-08-30T05:58:37;3.38;;;3.28;;
54815;SDS011;40715;55.752;37.884;2022-08-30T06:01:05;2.13;;;2.10;;
54815;SDS011;40715;55.752;37.884;2022-08-30T06:03:33;4.35;;;4.15;;
54815;SDS011;40715;55.752;37.884;2022-08-30T06:06:00;2.47;;;2.38;;
54815;SDS011;40715;55.752;37.884;2022-08-30T06:08:27;2.67;;;2.58;;
54815;SDS011;40715;55.752;37.884;2022-08-30T06:10:54;2.75;;;2.65;;
54815;SDS011;40715;55.752;37.884;2022-08-30T06:13:21;2.70;;;2.60;;
54815;SDS011;40715;55.752;37.884;2022-08-30T06:15:48;3.20;;;3.10;;
54815;SDS011;40715;55.752;37.884;2022-08-30T06:18:18;3.35;;;3.25;;
54815;SDS011;40715;55.752;37.884;2022-08-30T06:20:45;3.53;;;3.42;;
54815;SDS011;40715;55.752;37.884;2022-08-30T06:23:16;4.68;;;4.47;;
54815;SDS011;40715;55.752;37.884;2022-08-30T06:25:43;3.88;;;3.78;;
54815;SDS011;40715;55.752;37.884;2022-08-30T06:28:10;5.10;;;4.90;;
54815;SDS011;40715;55.752;37.884;2022-08-30T06:30:38;5.43;;;5.22;;
54815;SDS011;40715;55.752;37.884;2022-08-30T06:33:07;5.18;;;4.97;;
54815;SDS011;40715;55.752;37.884;2022-08-30T06:35:35;6.60;;;6.30;;
54815;SDS011;40715;55.752;37.884;2022-08-30T06:38:12;6.30;;;6.00;;
54815;SDS011;40715;55.752;37.884;2022-08-30T06:40:39;6.57;;;6.28;;
54815;SDS011;40715;55.752;37.884;2022-08-30T06:43:06;8.05;;;7.68;;
54815;SDS011;40715;55.752;37.884;2022-08-30T06:45:33;7.75;;;7.45;;
54815;SDS011;40715;55.752;37.884;2022-08-30T06:48:01;8.95;;;8.55;;
54815;SDS011;40715;55.752;37.884;2022-08-30T06:50:28;9.05;;;8.65;;
54815;SDS011;40715;55.752;37.884;2022-08-30T06:52:57;8.68;;;8.27;;
54815;SDS011;40715;55.752;37.884;2022-08-30T06:55:31;10.30;;;9.85;;
54815;SDS011;40715;55.752;37.884;2022-08-30T06:57:59;10.80;;;10.30;;
54815;SDS011;40715;55.752;37.884;2022-08-30T07:00:27;11.43;;;10.93;;
54815;SDS011;40715;55.752;37.884;2022-08-30T07:02:54;12.75;;;12.15;;
54815;SDS011;40715;55.752;37.884;2022-08-30T07:05:21;10.65;;;10.15;;
54815;SDS011;40715;55.752;37.884;2022-08-30T07:07:49;11.38;;;10.88;;
54815;SDS011;40715;55.752;37.884;2022-08-30T07:10:19;10.70;;;10.20;;
54815;SDS011;40715;55.752;37.884;2022-08-30T07:12:47;9.25;;;8.85;;
54815;SDS011;40715;55.752;37.884;2022-08-30T07:15:14;8.05;;;7.75;;
54815;SDS011;40715;55.752;37.884;2022-08-30T07:17:42;7.47;;;7.18;;
54815;SDS011;40715;55.752;37.884;2022-08-30T07:20:27;7.15;;;6.85;;
54815;SDS011;40715;55.752;37.884;2022-08-30T07:23:06;7.72;;;7.43;;
54815;SDS011;40715;55.752;37.884;2022-08-30T07:25:34;7.18;;;6.88;;
54815;SDS011;40715;55.752;37.884;2022-08-30T07:28:05;8.15;;;7.82;;
54815;SDS011;40715;55.752;37.884;2022-08-30T07:30:33;8.90;;;8.50;;
54815;SDS011;40715;55.752;37.884;2022-08-30T07:33:01;9.13;;;8.73;;
54815;SDS011;40715;55.752;37.884;2022-08-30T07:35:28;8.05;;;7.75;;
54815;SDS011;40715;55.752;37.884;2022-08-30T07:37:55;8.52;;;8.13;;
54815;SDS011;40715;55.752;37.884;2022-08-30T07:40:22;4.93;;;4.72;;
54815;SDS011;40715;55.752;37.884;2022-08-30T07:42:49;3.60;;;3.50;;
54815;SDS011;40715;55.752;37.884;2022-08-30T07:45:16;2.50;;;2.40;;
54815;SDS011;40715;55.752;37.884;2022-08-30T07:47:44;1.90;;;1.90;;
54815;SDS011;40715;55.752;37.884;2022-08-30T07:50:11;1.60;;;1.60;;
54815;SDS011;40715;55.752;37.884;2022-08-30T07:52:38;1.40;;;1.40;;
54815;SDS011;40715;55.752;37.884;2022-08-30T07:55:05;1.30;;;1.30;;
54815;SDS011;40715;55.752;37.884;2022-08-30T07:57:32;1.80;;;1.80;;
54815;SDS011;40715;55.752;37.884;2022-08-30T07:59:59;2.30;;;2.20;;
54815;SDS011;40715;55.752;37.884;2022-08-30T08:02:29;2.47;;;2.38;;
54815;SDS011;40715;55.752;37.884;2022-08-30T08:04:56;8.13;;;7.75;;
54815;SDS011;40715;55.752;37.884;2022-08-30T08:07:24;4.63;;;4.43;;
54815;SDS011;40715;55.752;37.884;2022-08-30T08:09:50;3.97;;;3.88;;
54815;SDS011;40715;55.752;37.884;2022-08-30T08:12:17;3.55;;;3.45;;
54815;SDS011;40715;55.752;37.884;2022-08-30T08:14:44;3.97;;;3.88;;
54815;SDS011;40715;55.752;37.884;2022-08-30T08:17:11;3.72;;;3.63;;
54815;SDS011;40715;55.752;37.884;2022-08-30T08:19:38;3.95;;;3.85;;
54815;SDS011;40715;55.752;37.884;2022-08-30T08:22:05;4.00;;;3.90;;
54815;SDS011;40715;55.752;37.884;2022-08-30T08:24:48;4.15;;;4.03;;
54815;SDS011;40715;55.752;37.884;2022-08-30T08:27:15;4.03;;;3.92;;
54815;SDS011;40715;55.752;37.884;2022-08-30T08:29:42;4.57;;;4.38;;
54815;SDS011;40715;55.752;37.884;2022-08-30T08:32:09;4.38;;;4.18;;
54815;SDS011;40715;55.752;37.884;2022-08-30T08:34:36;4.88;;;4.68;;
54815;SDS011;40715;55.752;37.884;2022-08-30T08:37:03;5.28;;;5.07;;
54815;SDS011;40715;55.752;37.884;2022-08-30T08:39:30;8.20;;;7.80;;
54815;SDS011;40715;55.752;37.884;2022-08-30T08:49:54;8.40;;;8.00;;
54815;SDS011;40715;55.752;37.884;2022-08-30T08:52:28;9.35;;;8.95;;
54815;SDS011;40715;55.752;37.884;2022-08-30T08:55:21;7.93;;;7.63;;
54815;SDS011;40715;55.752;37.884;2022-08-30T08:57:50;8.07;;;7.78;;
54815;SDS011;40715;55.752;37.884;2022-08-30T09:00:18;9.23;;;8.82;;
54815;SDS011;40715;55.752;37.884;2022-08-30T09:02:46;8.82;;;8.43;;
54815;SDS011;40715;55.752;37.884;2022-08-30T09:05:21;8.30;;;7.90;;
54815;SDS011;40715;55.752;37.884;2022-08-30T09:07:53;8.57;;;8.18;;
54815;SDS011;40715;55.752;37.884;2022-08-30T09:10:34;7.90;;;7.60;;
54815;SDS011;40715;55.752;37.884;2022-08-30T09:13:19;8.55;;;8.15;;
54815;SDS011;40715;55.752;37.884;2022-08-30T09:15:48;7.93;;;7.63;;
54815;SDS011;40715;55.752;37.884;2022-08-30T09:18:38;7.18;;;6.88;;
54815;SDS011;40715;55.752;37.884;2022-08-30T09:21:11;7.18;;;6.88;;
54815;SDS011;40715;55.752;37.884;2022-08-30T09:23:50;8.27;;;7.93;;
54815;SDS011;40715;55.752;37.884;2022-08-30T09:26:34;9.75;;;9.35;;
54815;SDS011;40715;55.752;37.884;2022-08-30T09:29:03;9.93;;;9.52;;
54815;SDS011;40715;55.752;37.884;2022-08-30T09:31:32;11.20;;;10.70;;
54815;SDS011;40715;55.752;37.884;2022-08-30T09:34:15;10.55;;;10.05;;
54815;SDS011;40715;55.752;37.884;2022-08-30T09:36:48;8.60;;;8.20;;
54815;SDS011;40715;55.752;37.884;2022-08-30T09:39:29;6.80;;;6.50;;
54815;SDS011;40715;55.752;37.884;2022-08-30T09:42:19;3.78;;;3.67;;
54815;SDS011;40715;55.752;37.884;2022-08-30T09:44:46;2.40;;;2.30;;
54815;SDS011;40715;55.752;37.884;2022-08-30T09:47:29;1.63;;;1.63;;
54815;SDS011;40715;55.752;37.884;2022-08-30T09:58:03;0.45;;;0.45;;
54815;SDS011;40715;55.752;37.884;2022-08-30T10:00:43;0.40;;;0.40;;
54815;SDS011;40715;55.752;37.884;2022-08-30T10:06:24;0.30;;;0.30;;
54815;SDS011;40715;55.752;37.884;2022-08-30T10:09:06;0.20;;;0.20;;
54815;SDS011;40715;55.752;37.884;2022-08-30T10:20:20;0.10;;;0.10;;
54815;SDS011;40715;55.752;37.884;2022-08-30T10:22:50;0.10;;;0.10;;
54815;SDS011;40715;55.752;37.884;2022-08-30T10:28:13;0.10;;;0.10;;
54815;SDS011;40715;55.752;37.884;2022-08-30T10:30:47;0.10;;;0.10;;
54815;SDS011;40715;55.752;37.884;2022-08-30T10:33:34;0.10;;;0.10;;
54815;SDS011;40715;55.752;37.884;2022-08-30T10:36:08;0.10;;;0.10;;
54815;SDS011;40715;55.752;37.884;2022-08-30T10:38:39;0.10;;;0.10;;
54815;SDS011;40715;55.752;37.884;2022-08-30T10:41:28;0.10;;;0.10;;
54815;SDS011;40715;55.752;37.884;2022-08-30T10:46:43;0.10;;;0.10;;
54815;SDS011;40715;55.752;37.884;2022-08-30T10:49:34;0.10;;;0.10;;
54815;SDS011;40715;55.752;37.884;2022-08-30T10:52:15;0.10;;;0.10;;
54815;SDS011;40715;55.752;37.884;2022-08-30T10:57:47;0.10;;;0.10;;
54815;SDS011;40715;55.752;37.884;2022-08-30T11:00:22;0.10;;;0.10;;
54815;SDS011;40715;55.752;37.884;2022-08-30T11:08:44;0.10;;;0.10;;
54815;SDS011;40715;55.752;37.884;2022-08-30T11:13:57;0.10;;;0.10;;
54815;SDS011;40715;55.752;37.884;2022-08-30T11:16:35;0.10;;;0.10;;
54815;SDS011;40715;55.752;37.884;2022-08-30T11:19:14;0.10;;;0.10;;
54815;SDS011;40715;55.752;37.884;2022-08-30T11:21:46;0.00;;;0.00;;
54815;SDS011;40715;55.752;37.884;2022-08-30T11:24:15;0.10;;;0.10;;
54815;SDS011;40715;55.752;37.884;2022-08-30T11:29:48;0.05;;;0.05;;
54815;SDS011;40715;55.752;37.884;2022-08-30T11:40:12;0.00;;;0.00;;
54815;SDS011;40715;55.752;37.884;2022-08-30T11:48:45;0.00;;;0.00;;
54815;SDS011;40715;55.752;37.884;2022-08-30T12:03:27;0.00;;;0.00;;
54815;SDS011;40715;55.752;37.884;2022-08-30T12:06:03;0.00;;;0.00;;
54815;SDS011;40715;55.752;37.884;2022-08-30T12:18:44;0.00;;;0.00;;
54815;SDS011;40715;55.752;37.884;2022-08-30T12:23:47;0.10;;;0.10;;
54815;SDS011;40715;55.752;37.884;2022-08-30T12:26:37;0.00;;;0.00;;
54815;SDS011;40715;55.752;37.884;2022-08-30T12:31:53;0.05;;;0.05;;
54815;SDS011;40715;55.752;37.884;2022-08-30T12:37:25;0.00;;;0.00;;
54815;SDS011;40715;55.752;37.884;2022-08-30T12:40:13;0.00;;;0.00;;
54815;SDS011;40715;55.752;37.884;2022-08-30T12:42:57;0.00;;;0.00;;
54815;SDS011;40715;55.752;37.884;2022-08-30T12:45:28;0.00;;;0.00;;
54815;SDS011;40715;55.752;37.884;2022-08-30T12:48:06;0.10;;;0.10;;
54815;SDS011;40715;55.752;37.884;2022-08-30T12:50:46;0.10;;;0.00;;
54815;SDS011;40715;55.752;37.884;2022-08-30T12:53:24;0.00;;;0.00;;
54815;SDS011;40715;55.752;37.884;2022-08-30T12:56:03;0.00;;;0.00;;
54815;SDS011;40715;55.752;37.884;2022-08-30T12:58:33;0.00;;;0.00;;
54815;SDS011;40715;55.752;37.884;2022-08-30T13:01:14;0.05;;;0.05;;
54815;SDS011;40715;55.752;37.884;2022-08-30T13:09:20;0.00;;;0.00;;
54815;SDS011;40715;55.752;37.884;2022-08-30T13:11:50;0.00;;;0.00;;
54815;SDS011;40715;55.752;37.884;2022-08-30T13:17:20;0.00;;;0.00;;
54815;SDS011;40715;55.752;37.884;2022-08-30T13:19:56;0.00;;;0.00;;
54815;SDS011;40715;55.752;37.884;2022-08-30T13:22:39;0.00;;;0.00;;
54815;SDS011;40715;55.752;37.884;2022-08-30T13:25:08;0.00;;;0.00;;
54815;SDS011;40715;55.752;37.884;2022-08-30T13:27:37;0.00;;;0.00;;
54815;SDS011;40715;55.752;37.884;2022-08-30T13:30:12;0.10;;;0.10;;
54815;SDS011;40715;55.752;37.884;2022-08-30T13:32:43;0.00;;;0.00;;
54815;SDS011;40715;55.752;37.884;2022-08-30T13:35:11;0.03;;;0.03;;
54815;SDS011;40715;55.752;37.884;2022-08-30T13:37:39;0.00;;;0.00;;
54815;SDS011;40715;55.752;37.884;2022-08-30T13:40:13;0.00;;;0.00;;
54815;SDS011;40715;55.752;37.884;2022-08-30T13:42:41;0.00;;;0.00;;
54815;SDS011;40715;55.752;37.884;2022-08-30T13:45:09;0.00;;;0.00;;
54815;SDS011;40715;55.752;37.884;2022-08-30T13:47:59;0.10;;;0.10;;
54815;SDS011;40715;55.752;37.884;2022-08-30T13:50:26;0.00;;;0.00;;
54815;SDS011;40715;55.752;37.884;2022-08-30T13:52:53;0.00;;;0.00;;
54815;SDS011;40715;55.752;37.884;2022-08-30T13:55:20;0.10;;;0.10;;
54815;SDS011;40715;55.752;37.884;2022-08-30T13:57:47;0.10;;;0.10;;
54815;SDS011;40715;55.752;37.884;2022-08-30T14:00:23;0.10;;;0.10;;
54815;SDS011;40715;55.752;37.884;2022-08-30T14:02:50;0.00;;;0.00;;
54815;SDS011;40715;55.752;37.884;2022-08-30T14:05:22;0.00;;;0.00;;
54815;SDS011;40715;55.752;37.884;2022-08-30T14:08:13;0.10;;;0.10;;
54815;SDS011;40715;55.752;37.884;2022-08-30T14:11:03;0.00;;;0.00;;
54815;SDS011;40715;55.752;37.884;2022-08-30T14:13:30;0.00;;;0.00;;
54815;SDS011;40715;55.752;37.884;2022-08-30T14:15:59;0.00;;;0.00;;
54815;SDS011;40715;55.752;37.884;2022-08-30T14:18:47;0.00;;;0.00;;
54815;SDS011;40715;55.752;37.884;2022-08-30T14:21:14;0.10;;;0.10;;
54815;SDS011;40715;55.752;37.884;2022-08-30T14:23:41;0.10;;;0.10;;
54815;SDS011;40715;55.752;37.884;2022-08-30T14:26:30;0.00;;;0.00;;
54815;SDS011;40715;55.752;37.884;2022-08-30T14:28:58;0.00;;;0.00;;
54815;SDS011;40715;55.752;37.884;2022-08-30T14:31:26;0.10;;;0.10;;
54815;SDS011;40715;55.752;37.884;2022-08-30T14:33:55;0.00;;;0.00;;
54815;SDS011;40715;55.752;37.884;2022-08-30T14:36:22;0.10;;;0.10;;
54815;SDS011;40715;55.752;37.884;2022-08-30T14:38:49;0.00;;;0.00;;
54815;SDS011;40715;55.752;37.884;2022-08-30T14:41:16;0.00;;;0.00;;
54815;SDS011;40715;55.752;37.884;2022-08-30T14:43:43;0.08;;;0.08;;
54815;SDS011;40715;55.752;37.884;2022-08-30T14:46:11;0.10;;;0.08;;
54815;SDS011;40715;55.752;37.884;2022-08-30T14:48:38;0.00;;;0.00;;
54815;SDS011;40715;55.752;37.884;2022-08-30T14:51:12;0.00;;;0.00;;
54815;SDS011;40715;55.752;37.884;2022-08-30T14:53:42;0.00;;;0.00;;
54815;SDS011;40715;55.752;37.884;2022-08-30T14:56:10;0.00;;;0.00;;
54815;SDS011;40715;55.752;37.884;2022-08-30T14:58:41;0.00;;;0.00;;
54815;SDS011;40715;55.752;37.884;2022-08-30T15:01:09;0.10;;;0.00;;
54815;SDS011;40715;55.752;37.884;2022-08-30T15:03:38;0.00;;;0.00;;
54815;SDS011;40715;55.752;37.884;2022-08-30T15:06:06;0.00;;;0.00;;
54815;SDS011;40715;55.752;37.884;2022-08-30T15:08:34;0.00;;;0.00;;
54815;SDS011;40715;55.752;37.884;2022-08-30T15:11:09;0.00;;;0.00;;
54815;SDS011;40715;55.752;37.884;2022-08-30T15:13:37;0.00;;;0.00;;
54815;SDS011;40715;55.752;37.884;2022-08-30T15:18:40;0.00;;;0.00;;
54815;SDS011;40715;55.752;37.884;2022-08-30T15:21:08;0.00;;;0.00;;
54815;SDS011;40715;55.752;37.884;2022-08-30T15:23:36;0.05;;;0.00;;
54815;SDS011;40715;55.752;37.884;2022-08-30T15:26:04;0.00;;;0.00;;
54815;SDS011;40715;55.752;37.884;2022-08-30T15:28:33;0.00;;;0.00;;
54815;SDS011;40715;55.752;37.884;2022-08-30T15:31:00;0.00;;;0.00;;
54815;SDS011;40715;55.752;37.884;2022-08-30T15:33:31;0.10;;;0.00;;
54815;SDS011;40715;55.752;37.884;2022-08-30T15:35:59;0.00;;;0.00;;
54815;SDS011;40715;55.752;37.884;2022-08-30T15:38:27;0.10;;;0.10;;
54815;SDS011;40715;55.752;37.884;2022-08-30T15:40:55;0.08;;;0.03;;
54815;SDS011;40715;55.752;37.884;2022-08-30T15:43:27;0.00;;;0.00;;
54815;SDS011;40715;55.752;37.884;2022-08-30T15:45:55;0.00;;;0.00;;
54815;SDS011;40715;55.752;37.884;2022-08-30T15:48:22;0.00;;;0.00;;
54815;SDS011;40715;55.752;37.884;2022-08-30T15:50:58;0.00;;;0.00;;
54815;SDS011;40715;55.752;37.884;2022-08-30T15:53:25;0.00;;;0.00;;
54815;SDS011;40715;55.752;37.884;2022-08-30T15:55:52;0.00;;;0.00;;
54815;SDS011;40715;55.752;37.884;2022-08-30T15:58:19;0.00;;;0.00;;
54815;SDS011;40715;55.752;37.884;2022-08-30T16:00:46;0.00;;;0.00;;
54815;SDS011;40715;55.752;37.884;2022-08-30T16:03:13;0.00;;;0.00;;
54815;SDS011;40715;55.752;37.884;2022-08-30T16:05:40;0.00;;;0.00;;
54815;SDS011;40715;55.752;37.884;2022-08-30T16:08:07;0.00;;;0.00;;
54815;SDS011;40715;55.752;37.884;2022-08-30T16:10:35;0.00;;;0.00;;
54815;SDS011;40715;55.752;37.884;2022-08-30T16:13:02;0.00;;;0.00;;
54815;SDS011;40715;55.752;37.884;2022-08-30T16:15:29;0.00;;;0.00;;
54815;SDS011;40715;55.752;37.884;2022-08-30T16:17:56;0.00;;;0.00;;
54815;SDS011;40715;55.752;37.884;2022-08-30T16:20:23;0.00;;;0.00;;
54815;SDS011;40715;55.752;37.884;2022-08-30T16:22:50;0.00;;;0.00;;
54815;SDS011;40715;55.752;37.884;2022-08-30T16:25:17;0.20;;;0.00;;
54815;SDS011;40715;55.752;37.884;2022-08-30T16:27:44;0.00;;;0.00;;
54815;SDS011;40715;55.752;37.884;2022-08-30T16:30:11;0.00;;;0.00;;
54815;SDS011;40715;55.752;37.884;2022-08-30T16:32:39;0.10;;;0.00;;
54815;SDS011;40715;55.752;37.884;2022-08-30T16:35:06;0.20;;;0.10;;
54815;SDS011;40715;55.752;37.884;2022-08-30T16:37:34;0.00;;;0.00;;